createdAt,value
2022-09-04T00:00:16.326Z,587.2
2022-09-04T00:01:18.540Z,587.2
2022-09-04T00:02:20.742Z,587.7
2022-09-04T00:03:23.223Z,587.6
2022-09-04T00:04:26.369Z,587.5
2022-09-04T00:05:28.931Z,587.4
2022-09-04T00:06:33.834Z,587.5
2022-09-04T00:07:36.028Z,587.9
2022-09-04T00:08:38.231Z,587.3
2022-09-04T00:09:40.702Z,588
2022-09-04T00:10:43.190Z,587.8
2022-09-04T00:11:45.671Z,587.7
2022-09-04T00:12:48.136Z,587.6
2022-09-04T00:13:50.335Z,587.5
2022-09-04T00:14:52.536Z,587.5
2022-09-04T00:15:55.021Z,587.4
2022-09-04T00:16:57.588Z,587.9
2022-09-04T00:18:00.720Z,587.9
2022-09-04T00:19:02.926Z,587.9
2022-09-04T00:20:05.430Z,587.5
2022-09-04T00:21:07.336Z,587.5
2022-09-04T00:22:09.798Z,587.4
2022-09-04T00:23:12.272Z,587.4
2022-09-04T00:24:14.482Z,587.5
2022-09-04T00:25:16.962Z,587.3
2022-09-04T00:27:24.169Z,587.1
2022-09-04T00:28:26.835Z,586.8
2022-09-04T00:29:29.310Z,586.5
2022-09-04T00:30:31.774Z,586.9
2022-09-04T00:31:34.269Z,586.8
2022-09-04T00:32:36.735Z,586.6
2022-09-04T00:33:39.212Z,586.7
2022-09-04T00:34:41.681Z,586.6
2022-09-04T00:35:43.894Z,586.8
2022-09-04T00:37:51.357Z,586.6
2022-09-04T00:38:53.838Z,586.1
2022-09-04T00:39:56.540Z,586.3
2022-09-04T00:40:59.046Z,586.5
2022-09-04T00:42:01.536Z,586.8
2022-09-04T00:43:03.706Z,586.8
2022-09-04T00:44:05.907Z,587
2022-09-04T00:46:13.831Z,586.8
2022-09-04T00:47:16.347Z,586.8
2022-09-04T00:48:19.089Z,586.6
2022-09-04T00:49:21.554Z,586.4
2022-09-04T00:50:24.028Z,586.9
2022-09-04T00:51:26.228Z,586.8
2022-09-04T00:53:33.693Z,586.6
2022-09-04T00:54:36.170Z,586.5
2022-09-04T00:55:38.645Z,586.1
2022-09-04T00:56:40.839Z,585.8
2022-09-04T00:57:43.330Z,586.1
2022-09-04T00:58:45.797Z,585.9
2022-09-04T00:59:48.024Z,586.1
2022-09-04T01:00:50.620Z,585.8
2022-09-04T01:01:54.026Z,585.9
2022-09-04T01:02:56.585Z,585.9
2022-09-04T01:04:00.212Z,585.6
2022-09-04T01:05:03.587Z,585.5
2022-09-04T01:06:06.670Z,585.3
2022-09-04T01:07:09.412Z,585.2
2022-09-04T01:09:16.334Z,585
2022-09-04T01:10:17.977Z,585.2
2022-09-04T01:11:20.456Z,585
2022-09-04T01:12:22.923Z,585.1
2022-09-04T01:13:25.398Z,585.4
2022-09-04T01:14:27.572Z,585.1
2022-09-04T01:15:30.044Z,585.2
2022-09-04T01:16:32.295Z,585.2
2022-09-04T01:17:34.515Z,585
2022-09-04T01:18:36.992Z,584.9
2022-09-04T01:19:39.485Z,584.7
2022-09-04T01:20:43.712Z,584.7
2022-09-04T01:21:45.913Z,584.9
2022-09-04T01:22:47.824Z,584.9
2022-09-04T01:23:50.417Z,584.8
2022-09-04T01:24:52.907Z,584.8
2022-09-04T01:25:55.118Z,584.2
2022-09-04T01:26:57.313Z,584.2
2022-09-04T01:27:59.812Z,584.5
2022-09-04T01:29:02.024Z,584.3
2022-09-04T01:30:04.240Z,584.4
2022-09-04T01:31:06.900Z,584.1
2022-09-04T01:32:09.248Z,583.9
2022-09-04T01:33:11.725Z,584.1
2022-09-04T01:34:13.929Z,584.2
2022-09-04T01:35:16.414Z,584.2
2022-09-04T01:36:18.904Z,583.9
2022-09-04T01:37:21.373Z,584.2
2022-09-04T01:38:24.164Z,583.9
2022-09-04T01:39:26.988Z,584.3
2022-09-04T01:42:39.200Z,584.3
2022-09-04T01:43:41.125Z,584.2
2022-09-04T01:44:43.323Z,583.6
2022-09-04T01:45:45.811Z,584
2022-09-04T01:46:48.320Z,584.2
2022-09-04T01:47:50.787Z,584.1
2022-09-04T01:48:52.986Z,584
2022-09-04T01:49:56.225Z,584.2
2022-09-04T01:50:58.450Z,583.8
2022-09-04T01:52:00.941Z,583.8
2022-09-04T01:53:03.498Z,583.4
2022-09-04T01:54:05.695Z,583.4
2022-09-04T01:55:08.174Z,583.8
2022-09-04T01:56:10.667Z,583.2
2022-09-04T01:57:12.866Z,583.5
2022-09-04T01:58:15.344Z,583.6
2022-09-04T01:59:17.556Z,583.6
2022-09-04T02:00:20.294Z,583.9
2022-09-04T02:01:23.490Z,583.8
2022-09-04T02:02:26.425Z,584
2022-09-04T02:03:29.028Z,583.9
2022-09-04T02:04:31.293Z,583.6
2022-09-04T02:05:33.776Z,583.5
2022-09-04T02:06:36.258Z,583.9
2022-09-04T02:07:38.751Z,584.2
2022-09-04T02:08:41.275Z,584
2022-09-04T02:09:43.743Z,583.9
2022-09-04T02:10:45.946Z,583.7
2022-09-04T02:11:48.425Z,583.5
2022-09-04T02:12:50.909Z,583.6
2022-09-04T02:13:53.474Z,583.2
2022-09-04T02:14:55.941Z,583.6
2022-09-04T02:15:58.437Z,583.4
2022-09-04T02:17:00.670Z,583.8
2022-09-04T02:18:02.629Z,583.4
2022-09-04T02:19:05.129Z,583.3
2022-09-04T02:20:07.613Z,583.7
2022-09-04T02:21:10.085Z,583.4
2022-09-04T02:22:12.285Z,583.4
2022-09-04T02:23:14.764Z,583.7
2022-09-04T02:24:17.241Z,583.7
2022-09-04T02:25:19.726Z,583.3
2022-09-04T02:26:22.200Z,583.5
2022-09-04T02:27:24.393Z,583.4
2022-09-04T02:28:27.549Z,583.3
2022-09-04T02:30:35.020Z,584
2022-09-04T02:31:37.787Z,583.7
2022-09-04T02:32:40.284Z,583.9
2022-09-04T02:33:42.472Z,584.2
2022-09-04T02:34:44.956Z,584.3
2022-09-04T02:35:47.424Z,584.1
2022-09-04T02:37:54.894Z,584.2
2022-09-04T02:38:57.358Z,584.1
2022-09-04T02:40:00.207Z,583.7
2022-09-04T02:41:02.731Z,583.8
2022-09-04T02:42:05.213Z,583.9
2022-09-04T02:43:07.685Z,583.6
2022-09-04T02:44:10.152Z,583.6
2022-09-04T02:45:12.625Z,583.5
2022-09-04T02:46:15.201Z,583.6
2022-09-04T02:47:17.525Z,584
2022-09-04T02:48:20.345Z,583.9
2022-09-04T02:49:22.574Z,583.7
2022-09-04T02:50:25.062Z,584
2022-09-04T02:51:27.257Z,584
2022-09-04T02:52:29.213Z,583.8
2022-09-04T02:53:31.688Z,583.7
2022-09-04T02:54:34.161Z,583.5
2022-09-04T02:55:36.081Z,583.8
2022-09-04T02:56:40.600Z,583.7
2022-09-04T02:57:43.088Z,583.9
2022-09-04T02:58:45.570Z,583.6
2022-09-04T02:59:48.042Z,583.9
2022-09-04T03:00:50.899Z,584
2022-09-04T03:01:53.335Z,583.7
2022-09-04T03:02:55.818Z,583.8
2022-09-04T03:03:58.005Z,584
2022-09-04T03:05:00.212Z,583.5
2022-09-04T03:06:02.737Z,583.4
2022-09-04T03:07:06.384Z,583.7
2022-09-04T03:08:08.919Z,583.7
2022-09-04T03:09:11.121Z,583.4
2022-09-04T03:10:13.086Z,583.4
2022-09-04T03:11:15.283Z,583.4
2022-09-04T03:12:17.483Z,583.5
2022-09-04T03:13:19.956Z,583.2
2022-09-04T03:14:22.424Z,583.6
2022-09-04T03:15:25.465Z,583.3
2022-09-04T03:16:28.277Z,583.7
2022-09-04T03:17:30.573Z,583.3
2022-09-04T03:18:33.049Z,583.6
2022-09-04T03:19:37.947Z,583.4
2022-09-04T03:20:40.417Z,583.3
2022-09-04T03:21:42.899Z,582.9
2022-09-04T03:22:45.369Z,582.9
2022-09-04T03:23:47.844Z,583
2022-09-04T03:24:50.038Z,582.7
2022-09-04T03:25:52.510Z,582.6
2022-09-04T03:26:54.683Z,582.5
2022-09-04T03:27:56.914Z,582.6
2022-09-04T03:28:59.379Z,582.8
2022-09-04T03:30:01.602Z,582.5
2022-09-04T03:31:04.296Z,582.3
2022-09-04T03:33:11.800Z,582.6
2022-09-04T03:34:14.541Z,582.7
2022-09-04T03:35:17.216Z,582.4
2022-09-04T03:36:19.135Z,582.4
2022-09-04T03:37:21.616Z,582.7
2022-09-04T03:38:24.403Z,582.4
2022-09-04T03:39:26.655Z,582.2
2022-09-04T03:40:29.146Z,582.3
2022-09-04T03:41:31.665Z,582.2
2022-09-04T03:42:33.855Z,582.2
2022-09-04T03:43:35.516Z,582
2022-09-04T03:44:39.078Z,581.8
2022-09-04T03:45:41.575Z,581.9
2022-09-04T03:46:44.305Z,581.7
2022-09-04T03:47:46.835Z,581.3
2022-09-04T03:48:49.310Z,581.6
2022-09-04T03:49:51.793Z,581.3
2022-09-04T03:50:54.261Z,581.3
2022-09-04T03:51:56.745Z,581.4
2022-09-04T03:52:59.260Z,581.2
2022-09-04T03:54:01.760Z,581.3
2022-09-04T03:55:03.962Z,581.6
2022-09-04T03:56:06.429Z,581.6
2022-09-04T03:57:08.640Z,581.3
2022-09-04T03:58:11.116Z,581.8
2022-09-04T03:59:13.578Z,581.3
2022-09-04T04:00:15.786Z,581.1
2022-09-04T04:02:24.019Z,581.6
2022-09-04T04:03:28.135Z,581.3
2022-09-04T04:04:30.607Z,581.2
2022-09-04T04:05:33.072Z,580.8
2022-09-04T04:06:35.548Z,581.1
2022-09-04T04:07:38.015Z,581.1
2022-09-04T04:08:40.504Z,581
2022-09-04T04:09:43.032Z,580.8
2022-09-04T04:10:45.508Z,581.1
2022-09-04T04:11:48.003Z,581.2
2022-09-04T04:12:51.639Z,581.1
2022-09-04T04:13:54.115Z,580.9
2022-09-04T04:14:56.588Z,581
2022-09-04T04:15:58.779Z,580.9
2022-09-04T04:18:08.641Z,580.7
2022-09-04T04:19:11.122Z,580.5
2022-09-04T04:20:13.604Z,580.9
2022-09-04T04:21:16.071Z,580.3
2022-09-04T04:22:18.554Z,580.2
2022-09-04T04:23:21.019Z,580.2
2022-09-04T04:24:23.502Z,579.9
2022-09-04T04:25:25.991Z,579.8
2022-09-04T04:26:28.460Z,579.5
2022-09-04T04:27:31.501Z,579.5
2022-09-04T04:28:34.001Z,579.5
2022-09-04T04:29:35.920Z,579.4
2022-09-04T04:30:39.119Z,579.4
2022-09-04T04:31:41.976Z,579.4
2022-09-04T04:32:44.489Z,579.2
2022-09-04T04:33:46.681Z,579
2022-09-04T04:34:49.150Z,579.1
2022-09-04T04:35:51.330Z,579
2022-09-04T04:36:53.257Z,578.5
2022-09-04T04:37:55.728Z,578.7
2022-09-04T04:38:58.196Z,578.5
2022-09-04T04:40:01.017Z,578.6
2022-09-04T04:41:02.949Z,578.2
2022-09-04T04:42:04.848Z,577.8
2022-09-04T04:43:07.064Z,578
2022-09-04T04:44:09.535Z,577.8
2022-09-04T04:45:12.030Z,577.6
2022-09-04T04:46:14.738Z,577.4
2022-09-04T04:47:17.249Z,577.5
2022-09-04T04:48:19.793Z,577.6
2022-09-04T04:49:22.303Z,577.2
2022-09-04T04:50:24.230Z,577.1
2022-09-04T04:51:26.720Z,577
2022-09-04T04:52:28.773Z,576.9
2022-09-04T04:53:30.979Z,576.8
2022-09-04T04:54:33.174Z,576.4
2022-09-04T04:55:35.377Z,576.9
2022-09-04T04:56:37.865Z,576.3
2022-09-04T04:57:40.078Z,576.2
2022-09-04T04:58:42.265Z,576.3
2022-09-04T04:59:45.563Z,576.2
2022-09-04T05:00:48.034Z,576.2
2022-09-04T05:01:51.266Z,575.8
2022-09-04T05:02:54.247Z,576
2022-09-04T05:03:56.519Z,576
2022-09-04T05:04:58.436Z,575.9
2022-09-04T05:06:00.366Z,575.6
2022-09-04T05:07:02.581Z,575.4
2022-09-04T05:09:10.054Z,575.1
2022-09-04T05:10:12.520Z,575
2022-09-04T05:11:14.990Z,575.4
2022-09-04T05:12:17.458Z,574.7
2022-09-04T05:13:19.946Z,575
2022-09-04T05:14:22.153Z,574.6
2022-09-04T05:15:24.635Z,575
2022-09-04T05:16:27.026Z,574.6
2022-09-04T05:17:31.165Z,574.5
2022-09-04T05:18:33.991Z,574.4
2022-09-04T05:19:36.176Z,574.4
2022-09-04T05:20:38.647Z,574.5
2022-09-04T05:21:41.122Z,574.6
2022-09-04T05:22:43.319Z,574.4
2022-09-04T05:23:45.552Z,574.4
2022-09-04T05:25:55.466Z,574.2
2022-09-04T05:26:59.442Z,573.8
2022-09-04T05:28:01.935Z,573.5
2022-09-04T05:29:04.124Z,573.6
2022-09-04T05:30:06.593Z,573.6
2022-09-04T05:31:09.353Z,573.1
2022-09-04T05:32:11.852Z,573.5
2022-09-04T05:33:14.025Z,573.3
2022-09-04T05:34:16.234Z,573.2
2022-09-04T05:35:18.945Z,572.8
2022-09-04T05:36:21.685Z,572.7
2022-09-04T05:37:26.313Z,572.7
2022-09-04T05:38:29.727Z,572.4
2022-09-04T05:39:32.725Z,572.5
2022-09-04T05:40:35.227Z,572.7
2022-09-04T05:41:37.168Z,572.2
2022-09-04T05:42:39.644Z,572.3
2022-09-04T05:43:41.834Z,572
2022-09-04T05:44:44.311Z,571.9
2022-09-04T05:45:46.505Z,572.2
2022-09-04T05:47:53.977Z,571.7
2022-09-04T05:48:56.444Z,571.8
2022-09-04T05:49:58.925Z,571.4
2022-09-04T05:51:01.106Z,571.3
2022-09-04T05:52:03.335Z,571.8
2022-09-04T05:53:05.811Z,571.8
2022-09-04T05:54:08.291Z,571.6
2022-09-04T05:55:10.758Z,571.4
2022-09-04T05:56:12.668Z,570.6
2022-09-04T05:57:15.161Z,570.7
2022-09-04T05:58:17.769Z,571.1
2022-09-04T05:59:20.276Z,570.7
2022-09-04T06:00:22.502Z,570.6
2022-09-04T06:01:24.530Z,570.1
2022-09-04T06:02:28.105Z,569.7
2022-09-04T06:03:30.349Z,570
2022-09-04T06:04:32.839Z,569.7
2022-09-04T06:05:34.770Z,569.6
2022-09-04T06:06:37.014Z,569.7
2022-09-04T06:07:39.570Z,569.4
2022-09-04T06:08:42.067Z,569.6
2022-09-04T06:09:44.559Z,569.2
2022-09-04T06:10:46.783Z,569.5
2022-09-04T06:11:49.270Z,569.3
2022-09-04T06:12:51.744Z,569
2022-09-04T06:13:54.225Z,569.1
2022-09-04T06:14:56.699Z,569.5
2022-09-04T06:15:59.655Z,569.1
2022-09-04T06:17:02.157Z,569.2
2022-09-04T06:18:04.653Z,569.2
2022-09-04T06:19:06.845Z,569.2
2022-09-04T06:20:09.056Z,569
2022-09-04T06:21:11.530Z,569.1
2022-09-04T06:22:14.004Z,569.1
2022-09-04T06:23:15.914Z,568.5
2022-09-04T06:24:18.420Z,568
2022-09-04T06:26:27.076Z,567.8
2022-09-04T06:28:35.744Z,567.7
2022-09-04T06:29:38.215Z,567.5
2022-09-04T06:30:40.693Z,567.5
2022-09-04T06:31:43.469Z,567.7
2022-09-04T06:33:50.682Z,568.2
2022-09-04T06:34:53.159Z,567.8
2022-09-04T06:35:55.634Z,568
2022-09-04T06:36:58.107Z,567.4
2022-09-04T06:38:00.595Z,567.8
2022-09-04T06:39:03.095Z,567.5
2022-09-04T06:40:06.041Z,567.5
2022-09-04T06:41:08.567Z,567.5
2022-09-04T06:42:10.767Z,567.1
2022-09-04T06:43:13.908Z,567.1
2022-09-04T06:44:16.126Z,567.4
2022-09-04T06:45:18.336Z,566.9
2022-09-04T06:46:21.120Z,566.9
2022-09-04T06:47:23.088Z,567.1
2022-09-04T06:48:25.935Z,567
2022-09-04T06:49:28.481Z,567.1
2022-09-04T06:50:30.683Z,567.1
2022-09-04T06:51:34.472Z,566.8
2022-09-04T06:52:36.213Z,566.8
2022-09-04T06:53:39.139Z,567.1
2022-09-04T06:54:41.706Z,566.8
2022-09-04T06:55:44.175Z,567.1
2022-09-04T06:56:46.653Z,567.1
2022-09-04T06:57:49.125Z,567
2022-09-04T06:58:51.617Z,566.8
2022-09-04T06:59:54.086Z,566.7
2022-09-04T07:00:56.575Z,566.6
2022-09-04T07:01:59.719Z,566.7
2022-09-04T07:03:02.008Z,566.5
2022-09-04T07:04:04.207Z,566.7
2022-09-04T07:05:06.682Z,566.1
2022-09-04T07:06:08.653Z,566.2
2022-09-04T07:07:11.136Z,565.9
2022-09-04T07:08:12.793Z,566
2022-09-04T07:09:14.731Z,566.5
2022-09-04T07:10:17.200Z,566.1
2022-09-04T07:11:19.677Z,566.1
2022-09-04T07:12:21.862Z,566.3
2022-09-04T07:13:24.342Z,566.1
2022-09-04T07:14:26.816Z,566
2022-09-04T07:15:30.530Z,565.7
2022-09-04T07:16:32.777Z,565.6
2022-09-04T07:17:35.265Z,565.4
2022-09-04T07:18:37.766Z,565.4
2022-09-04T07:19:39.961Z,565.6
2022-09-04T07:20:42.429Z,565.5
2022-09-04T07:21:44.638Z,565.5
2022-09-04T07:22:47.108Z,565.2
2022-09-04T07:23:49.608Z,565.1
2022-09-04T07:24:51.509Z,564.8
2022-09-04T07:25:53.708Z,565.2
2022-09-04T07:26:56.182Z,565.4
2022-09-04T07:27:58.663Z,565.1
2022-09-04T07:29:01.134Z,565.3
2022-09-04T07:30:03.617Z,565
2022-09-04T07:31:06.094Z,565.1
2022-09-04T07:32:08.316Z,564.8
2022-09-04T07:33:10.612Z,564.9
2022-09-04T07:34:12.809Z,564.6
2022-09-04T07:35:15.288Z,564.6
2022-09-04T07:36:17.764Z,564.3
2022-09-04T07:37:19.968Z,564.7
2022-09-04T07:38:22.392Z,564.3
2022-09-04T07:39:24.868Z,564.3
2022-09-04T07:41:31.824Z,564.4
2022-09-04T07:42:34.354Z,564.3
2022-09-04T07:43:36.831Z,564.2
2022-09-04T07:44:39.296Z,564.3
2022-09-04T07:45:41.784Z,564.2
2022-09-04T07:46:44.357Z,563.7
2022-09-04T07:47:46.865Z,563.6
2022-09-04T07:48:49.351Z,563.6
2022-09-04T07:49:51.828Z,563.8
2022-09-04T07:50:55.034Z,563.8
2022-09-04T07:51:57.517Z,563.5
2022-09-04T07:54:04.986Z,563.4
2022-09-04T07:55:07.456Z,563.4
2022-09-04T07:56:09.637Z,562.9
2022-09-04T07:57:12.141Z,562.8
2022-09-04T07:58:14.643Z,562.5
2022-09-04T07:59:17.113Z,562.9
2022-09-04T08:00:19.717Z,562.4
2022-09-04T08:01:22.014Z,562.1
2022-09-04T08:02:24.500Z,561.8
2022-09-04T08:03:26.501Z,561.3
2022-09-04T08:04:29.040Z,561.9
2022-09-04T08:05:31.263Z,562.3
2022-09-04T08:06:33.455Z,561.7
2022-09-04T08:07:35.943Z,561.5
2022-09-04T08:08:38.140Z,561.6
2022-09-04T08:09:40.062Z,561.6
2022-09-04T08:10:42.243Z,561.5
2022-09-04T08:11:44.177Z,560.8
2022-09-04T08:12:46.376Z,561.4
2022-09-04T08:13:48.580Z,560.9
2022-09-04T08:14:51.080Z,561
2022-09-04T08:15:53.804Z,560.8
2022-09-04T08:16:56.019Z,561.6
2022-09-04T08:17:58.209Z,560.4
2022-09-04T08:19:00.832Z,561
2022-09-04T08:20:03.038Z,560.6
2022-09-04T08:21:05.248Z,560.3
2022-09-04T08:22:07.731Z,560.4
2022-09-04T08:23:10.201Z,560.1
2022-09-04T08:24:12.670Z,560.2
2022-09-04T08:25:15.505Z,560
2022-09-04T08:26:17.994Z,560.2
2022-09-04T08:27:20.501Z,560
2022-09-04T08:28:23.286Z,560.1
2022-09-04T08:29:25.763Z,560.2
2022-09-04T08:30:28.273Z,560.3
2022-09-04T08:31:30.961Z,560.1
2022-09-04T08:33:38.469Z,560.2
2022-09-04T08:34:41.104Z,560.2
2022-09-04T08:35:43.669Z,559.6
2022-09-04T08:36:46.216Z,559.9
2022-09-04T08:37:48.711Z,559.4
2022-09-04T08:38:50.923Z,559.2
2022-09-04T08:39:53.648Z,559.2
2022-09-04T08:40:56.141Z,559.3
2022-09-04T08:41:58.064Z,559.2
2022-09-04T08:43:00.254Z,559.1
2022-09-04T08:44:02.456Z,558.9
2022-09-04T08:45:04.634Z,558.9
2022-09-04T08:46:07.099Z,559.1
2022-09-04T08:47:09.594Z,558.8
2022-09-04T08:49:19.051Z,558.7
2022-09-04T08:50:21.537Z,558.8
2022-09-04T08:51:24.977Z,558.5
2022-09-04T08:52:27.975Z,558.5
2022-09-04T08:53:30.527Z,557.8
2022-09-04T08:54:32.714Z,558.1
2022-09-04T08:55:35.192Z,558.2
2022-09-04T08:56:37.112Z,558.4
2022-09-04T08:57:39.605Z,557.9
2022-09-04T08:59:47.071Z,557.8
2022-09-04T09:00:49.551Z,558.1
2022-09-04T09:01:51.845Z,557.5
2022-09-04T09:02:54.710Z,558
2022-09-04T09:03:56.944Z,557.9
2022-09-04T09:04:59.415Z,557.9
2022-09-04T09:06:01.898Z,558.2
2022-09-04T09:07:03.856Z,558
2022-09-04T09:08:06.344Z,558.2
2022-09-04T09:09:08.912Z,557.9
2022-09-04T09:10:11.131Z,557.6
2022-09-04T09:12:20.435Z,558
2022-09-04T09:13:22.901Z,557.9
2022-09-04T09:14:25.383Z,557.8
2022-09-04T09:15:27.863Z,558
2022-09-04T09:16:30.399Z,557.9
2022-09-04T09:18:41.288Z,557.9
2022-09-04T09:19:43.458Z,558.2
2022-09-04T09:20:45.655Z,558
2022-09-04T09:21:48.122Z,558.1
2022-09-04T09:22:50.328Z,558.2
2022-09-04T09:23:52.810Z,558.2
2022-09-04T09:24:54.729Z,558.1
2022-09-04T09:25:56.652Z,558.2
2022-09-04T09:26:59.124Z,558.5
2022-09-04T09:28:01.604Z,558.5
2022-09-04T09:29:03.798Z,558.3
2022-09-04T09:30:05.980Z,558.5
2022-09-04T09:31:08.564Z,558.6
2022-09-04T09:32:10.513Z,558.6
2022-09-04T09:33:12.993Z,558.9
2022-09-04T09:34:15.470Z,558.7
2022-09-04T09:35:17.943Z,558.5
2022-09-04T09:36:19.870Z,558.8
2022-09-04T09:37:22.084Z,558.8
2022-09-04T09:38:28.752Z,558.8
2022-09-04T09:39:31.320Z,558.7
2022-09-04T09:40:33.287Z,558.7
2022-09-04T09:41:35.486Z,558.6
2022-09-04T09:42:37.971Z,558.4
2022-09-04T09:43:39.898Z,559
2022-09-04T09:44:42.375Z,559.3
2022-09-04T09:45:45.186Z,559.2
2022-09-04T09:46:47.429Z,558.9
2022-09-04T09:47:49.906Z,559.1
2022-09-04T09:48:52.379Z,559.3
2022-09-04T09:49:54.867Z,559.9
2022-09-04T09:50:57.067Z,559.7
2022-09-04T09:51:59.547Z,560.1
2022-09-04T09:53:01.747Z,559.4
2022-09-04T09:54:04.214Z,559.6
2022-09-04T09:55:07.716Z,559.2
2022-09-04T09:56:09.971Z,559.7
2022-09-04T09:57:12.610Z,559.4
2022-09-04T09:58:15.084Z,560
2022-09-04T09:59:16.714Z,559.7
2022-09-04T10:00:18.921Z,559.9
2022-09-04T10:01:21.103Z,560.3
2022-09-04T10:02:23.928Z,559.9
2022-09-04T10:03:26.991Z,560.5
2022-09-04T10:05:34.166Z,560.3
2022-09-04T10:06:36.639Z,560.9
2022-09-04T10:07:38.832Z,560.5
2022-09-04T10:08:41.309Z,561
2022-09-04T10:09:43.777Z,561
2022-09-04T10:10:46.248Z,560.8
2022-09-04T10:11:48.731Z,560.7
2022-09-04T10:12:50.932Z,561
2022-09-04T10:13:53.411Z,560.6
2022-09-04T10:14:55.871Z,560.7
2022-09-04T10:15:58.354Z,560.8
2022-09-04T10:17:01.326Z,560.7
2022-09-04T10:18:03.819Z,560.8
2022-09-04T10:19:05.996Z,560.4
2022-09-04T10:20:08.173Z,560.5
2022-09-04T10:21:10.646Z,560.1
2022-09-04T10:22:13.119Z,559.9
2022-09-04T10:23:15.599Z,559.6
2022-09-04T10:24:17.816Z,559.4
2022-09-04T10:25:20.298Z,559.4
2022-09-04T10:26:23.169Z,559
2022-09-04T10:27:29.837Z,559.4
2022-09-04T10:28:32.035Z,559.6
2022-09-04T10:29:34.508Z,559.3
2022-09-04T10:30:36.968Z,559.2
2022-09-04T10:31:39.458Z,559.2
2022-09-04T10:32:41.931Z,559.2
2022-09-04T10:33:43.836Z,558.9
2022-09-04T10:34:46.308Z,559.3
2022-09-04T10:35:48.782Z,559.3
2022-09-04T10:36:50.972Z,559.6
2022-09-04T10:37:53.449Z,559.6
2022-09-04T10:38:55.950Z,560.1
2022-09-04T10:39:58.714Z,559.7
2022-09-04T10:41:00.968Z,560.1
2022-09-04T10:42:03.175Z,560.4
2022-09-04T10:43:05.645Z,559.8
2022-09-04T10:44:08.211Z,560.3
2022-09-04T10:45:10.113Z,560
2022-09-04T10:47:17.307Z,559.9
2022-09-04T10:48:19.715Z,559.7
2022-09-04T10:49:22.333Z,559.8
2022-09-04T10:50:24.546Z,559.6
2022-09-04T10:51:27.027Z,559.5
2022-09-04T10:52:29.500Z,559.3
2022-09-04T10:53:33.562Z,559.2
2022-09-04T10:54:36.035Z,559.9
2022-09-04T10:55:38.535Z,559.4
2022-09-04T10:56:41.001Z,559.3
2022-09-04T10:57:43.487Z,559.2
2022-09-04T10:58:46.390Z,559.6
2022-09-04T10:59:50.115Z,559.5
2022-09-04T11:00:52.946Z,559.5
2022-09-04T11:01:55.895Z,559.1
2022-09-04T11:02:58.146Z,559.2
2022-09-04T11:04:01.789Z,558.7
2022-09-04T11:05:03.995Z,559.1
2022-09-04T11:06:07.218Z,559.4
2022-09-04T11:07:09.411Z,559.4
2022-09-04T11:08:11.899Z,559.6
2022-09-04T11:09:14.376Z,559.4
2022-09-04T11:10:16.850Z,559.4
2022-09-04T11:11:19.462Z,559.8
2022-09-04T11:12:21.971Z,559.6
2022-09-04T11:13:24.919Z,559.7
2022-09-04T11:14:27.457Z,559.4
2022-09-04T11:15:29.926Z,559.3
2022-09-04T11:16:32.752Z,559.2
2022-09-04T11:17:35.228Z,559.4
2022-09-04T11:18:37.705Z,559.1
2022-09-04T11:19:40.179Z,559.1
2022-09-04T11:20:42.380Z,559.6
2022-09-04T11:21:44.855Z,558.8
2022-09-04T11:22:47.733Z,559.2
2022-09-04T11:23:49.965Z,559.1
2022-09-04T11:24:52.382Z,559.3
2022-09-04T11:25:54.883Z,559.2
2022-09-04T11:26:57.352Z,559.2
2022-09-04T11:27:59.823Z,559.9
2022-09-04T11:29:02.294Z,560
2022-09-04T11:30:05.131Z,559.9
2022-09-04T11:31:07.618Z,560.4
2022-09-04T11:32:10.082Z,560.8
2022-09-04T11:33:12.557Z,560.7
2022-09-04T11:34:14.760Z,559.9
2022-09-04T11:35:16.961Z,560.1
2022-09-04T11:36:19.428Z,560.6
2022-09-04T11:37:21.609Z,560.8
2022-09-04T11:38:24.080Z,560.9
2022-09-04T11:39:26.890Z,559.8
2022-09-04T11:40:29.394Z,559.9
2022-09-04T11:41:31.868Z,559.3
2022-09-04T11:42:34.344Z,560
2022-09-04T11:44:41.813Z,559.8
2022-09-04T11:45:44.661Z,559.8
2022-09-04T11:46:46.894Z,559.9
2022-09-04T11:47:49.099Z,559.3
2022-09-04T11:48:51.567Z,560.3
2022-09-04T11:49:54.046Z,559.5
2022-09-04T11:50:56.579Z,560.2
2022-09-04T11:51:58.803Z,560.2
2022-09-04T11:53:01.015Z,560.1
2022-09-04T11:54:03.482Z,560.5
2022-09-04T11:55:05.704Z,560.4
2022-09-04T11:56:08.305Z,560.6
2022-09-04T11:57:10.504Z,560.4
2022-09-04T11:58:12.154Z,560.7
2022-09-04T11:59:14.626Z,559.5
2022-09-04T12:00:17.127Z,559.8
2022-09-04T12:01:19.617Z,559.2
2022-09-04T12:02:22.627Z,559.5
2022-09-04T12:03:25.508Z,559.6
2022-09-04T12:04:28.049Z,559.6
2022-09-04T12:05:30.531Z,559.4
2022-09-04T12:06:33.013Z,559.7
2022-09-04T12:08:40.480Z,559.5
2022-09-04T12:09:42.948Z,559.4
2022-09-04T12:10:45.443Z,559.5
2022-09-04T12:12:54.080Z,559.1
2022-09-04T12:13:56.556Z,559.6
2022-09-04T12:16:03.732Z,560.5
2022-09-04T12:17:06.271Z,560.1
2022-09-04T12:18:08.748Z,560.7
2022-09-04T12:19:11.223Z,559.9
2022-09-04T12:20:17.382Z,560.6
2022-09-04T12:21:19.560Z,560.4
2022-09-04T12:22:22.058Z,560.2
2022-09-04T12:23:24.994Z,560.4
2022-09-04T12:24:27.232Z,560.4
2022-09-04T12:25:29.745Z,560.4
2022-09-04T12:26:33.213Z,560.6
2022-09-04T12:27:35.441Z,560.1
2022-09-04T12:28:37.651Z,559.6
2022-09-04T12:29:40.127Z,559.8
2022-09-04T12:30:42.625Z,560.8
2022-09-04T12:32:51.144Z,560.9
2022-09-04T12:33:53.348Z,560.8
2022-09-04T12:34:55.557Z,560.5
2022-09-04T12:35:58.038Z,560.7
2022-09-04T12:37:00.519Z,560.6
2022-09-04T12:38:02.702Z,560.5
2022-09-04T12:39:04.918Z,560.3
2022-09-04T12:40:07.416Z,560.5
2022-09-04T12:41:09.936Z,560.4
2022-09-04T12:42:12.113Z,560.1
2022-09-04T12:43:14.598Z,560.4
2022-09-04T12:44:17.080Z,560.5
2022-09-04T12:45:19.825Z,560.6
2022-09-04T12:46:21.810Z,560.7
2022-09-04T12:47:24.039Z,560.4
2022-09-04T12:48:26.514Z,560.3
2022-09-04T12:49:29.012Z,560.4
2022-09-04T12:50:31.497Z,559.9
2022-09-04T12:51:34.004Z,560.3
2022-09-04T12:52:36.219Z,560.4
2022-09-04T12:53:38.500Z,560.6
2022-09-04T12:54:40.702Z,560.9
2022-09-04T12:55:43.177Z,561
2022-09-04T12:57:51.170Z,560.5
2022-09-04T12:58:53.367Z,560.7
2022-09-04T12:59:55.846Z,560.6
2022-09-04T13:00:58.701Z,560.9
2022-09-04T13:02:02.020Z,560.6
2022-09-04T13:03:04.525Z,560.3
2022-09-04T13:04:10.947Z,561
2022-09-04T13:05:13.418Z,560.5
2022-09-04T13:06:15.905Z,559.9
2022-09-04T13:07:18.272Z,559.9
2022-09-04T13:08:20.768Z,559.9
2022-09-04T13:09:23.236Z,559.9
2022-09-04T13:10:25.454Z,559.8
2022-09-04T13:11:27.939Z,560.1
2022-09-04T13:12:30.418Z,559.9
2022-09-04T13:13:32.612Z,560
2022-09-04T13:14:39.428Z,559.6
2022-09-04T13:15:42.716Z,559.5
2022-09-04T13:16:45.633Z,559.4
2022-09-04T13:17:47.590Z,559.8
2022-09-04T13:18:50.184Z,559.8
2022-09-04T13:19:52.424Z,560
2022-09-04T13:20:54.387Z,559.9
2022-09-04T13:21:56.858Z,560.2
2022-09-04T13:22:59.802Z,559.8
2022-09-04T13:24:01.997Z,559.2
2022-09-04T13:25:04.398Z,560
2022-09-04T13:26:06.838Z,559.3
2022-09-04T13:27:12.427Z,559.8
2022-09-04T13:29:19.915Z,559.6
2022-09-04T13:30:23.908Z,559
2022-09-04T13:31:27.135Z,559.4
2022-09-04T13:32:29.364Z,559.5
2022-09-04T13:33:31.547Z,559.8
2022-09-04T13:34:36.108Z,559.6
2022-09-04T13:35:38.480Z,559.6
2022-09-04T13:36:41.021Z,559.4
2022-09-04T13:37:43.554Z,559.4
2022-09-04T13:38:46.249Z,559.2
2022-09-04T13:39:49.103Z,559.5
2022-09-04T13:40:51.644Z,559.3
2022-09-04T13:41:54.342Z,559.7
2022-09-04T13:42:56.830Z,559.4
2022-09-04T13:43:59.049Z,559
2022-09-04T13:46:06.225Z,559.4
2022-09-04T13:47:08.740Z,559.8
2022-09-04T13:48:11.278Z,559.4
2022-09-04T13:49:13.758Z,559.3
2022-09-04T13:50:16.231Z,559.2
2022-09-04T13:51:18.407Z,559
2022-09-04T13:52:20.612Z,558.9
2022-09-04T13:53:23.375Z,558.7
2022-09-04T13:54:25.882Z,558.8
2022-09-04T13:55:28.351Z,558.7
2022-09-04T13:56:30.828Z,558.7
2022-09-04T13:57:33.306Z,559
2022-09-04T13:58:35.791Z,559
2022-09-04T13:59:38.018Z,559
2022-09-04T14:00:40.881Z,558.9
2022-09-04T14:01:43.423Z,559
2022-09-04T14:02:45.913Z,559.1
2022-09-04T14:03:49.840Z,559.3
2022-09-04T14:04:52.340Z,559.4
2022-09-04T14:05:54.269Z,559.2
2022-09-04T14:06:56.748Z,559.1
2022-09-04T14:07:58.665Z,559.8